EBCI - Charleroi/Gosselies, Belgium
Distance de la station: NE 18km
Mise à jour: 23/04/2021 12:20
clair
clair
 Wind from ENE
Vent: ENE 17 km/h
Température: 10°C
Température ressentie: 8°C
Point de rosée: 0°C
Humidité: 50%
Baromètre: 1029 hPa
Résumé: clair
Visibilité: greater than 10 km
2021/04/23 10:20 EBCI 231020Z 06009KT 020V080 CAVOK 10/M00 Q1029 NOSIG
EBFS - Florennes, Belgium
Distance de la station: ESE 31km
Mise à jour: 23/04/2021 12:25
quelques nuages
quelques nuages
 Wind from NE
Vent: NE 11 km/h
Température: 10°C
Température ressentie: 8°C
Point de rosée: 1°C
Humidité: 54%
Baromètre: 1028 hPa
Ciel: quelques nuages
Visibilité: 10 km
Détails du ciel: quelques nuages 9144 m
2021/04/23 10:25 EBFS 231025Z 05006KT 9999 FEW300 10/01 Q1028 BLU BLU
EBCV - Chievres, Belgium
Distance de la station: NO 40km
Mise à jour: 23/04/2021 12:25
clair
clair
 Wind from ENE
Vent: ENE 13 km/h
Température: 11°C
Point de rosée: -1°C
Humidité: 44%
Baromètre: 1029 hPa
Ciel: clair
Visibilité: 10 km
2021/04/23 10:25 EBCV 231025Z AUTO 07007KT 9999 NCD 11/M01 Q1029 BLU
 
EBBE - Beauvechain, Belgium
Distance de la station: NE 57km
Mise à jour: 23/04/2021 12:25
quelques nuages
quelques nuages
 Wind from E
Vent: E 11 km/h
Température: 9°C
Température ressentie: 7°C
Point de rosée: 0°C
Humidité: 54%
Baromètre: 1029 hPa
Ciel: quelques nuages
Visibilité: 10 km
Détails du ciel: quelques nuages 7620 m
2021/04/23 10:25 EBBE 231025Z 08006KT 9999 FEW250 09/00 Q1029 BLU BLU
EBBR - Brussels National, Belgium
Distance de la station: NNE 63km
Mise à jour: 23/04/2021 12:20
clair
clair
 Wind from NE
Vent: NE 9 km/h
Température: 10°C
Température ressentie: 9°C
Point de rosée: 0°C
Humidité: 50%
Baromètre: 1030 hPa
Résumé: clair
Visibilité: greater than 10 km
2021/04/23 10:20 EBBR 231020Z 05005KT 360V100 CAVOK 10/M00 Q1030 NOSIG
LFQI - Cambrai/Epinoy, France
Distance de la station: O 82km
Mise à jour: 29/06/2012 12:30
NOT Current

 Wind from SO
Vent: SO 17 km/h
Température: 18°C
Point de rosée: 14°C
Humidité: 78%
Baromètre: 1009 hPa
2012/06/29 10:30 LFQI 291030Z AUTO 22009KT //// // ///////// 18/14 Q1009
 
LFQQ - Lille/Lesquin, France
Distance de la station: ONO 86km
Mise à jour: 23/04/2021 12:30
clair
clair
 Wind from NE
Vent: NE 20 km/h
Température: 12°C
Point de rosée: 1°C
Humidité: 47%
Baromètre: 1029 hPa
Résumé: clair
Visibilité: greater than 10 km
2021/04/23 10:30 LFQQ 231030Z AUTO 05011KT 020V080 CAVOK 12/01 Q1029 NOSIG
EBLG - Bierset/Liege, Belgium
Distance de la station: ENE 89km
Mise à jour: 23/04/2021 12:20
clair
clair
 Wind from NE
Vent: NE 13 km/h
Température: 9°C
Température ressentie: 7°C
Point de rosée: 1°C
Humidité: 58%
Baromètre: 1029 hPa
Résumé: clair
Visibilité: greater than 10 km
2021/04/23 10:20 EBLG 231020Z 05007KT 030V120 CAVOK 09/01 Q1029 NOSIG
EBDT - Schaffen, Belgium
Distance de la station: NE 93km
Mise à jour: 23/04/2021 12:25
couvert
couvert
 Wind from E
Vent: E 9 km/h
Température: 10°C
Température ressentie: 9°C
Point de rosée: 0°C
Humidité: 50%
Baromètre: 1029 hPa
Ciel: couvert
Visibilité: 10 km
Détails du ciel: quelques nuages 2438 m
principalement nuageux 2896 m
couvert 3353 m
2021/04/23 10:25 EBDT 231025Z AUTO 08005KT 9999 FEW080/// BKN095/// OVC110/// 10/00 Q1029 BLU
 
EBAW - Antwerp/Deurne, Belgium
Distance de la station: N 96km
Mise à jour: 23/04/2021 12:20
clair
clair
 Wind from varies
Vent: varies 2 km/h
Température: 11°C
Point de rosée: 2°C
Humidité: 54%
Baromètre: 1030 hPa
Résumé: clair
Visibilité: greater than 10 km
2021/04/23 10:20 EBAW 231020Z VRB01KT CAVOK 11/02 Q1030 NOSIG
LFAQ - Bray, France
Distance de la station: OSO 119km
Mise à jour: 23/04/2021 12:30
clair
clair
 Wind from ENE
Vent: ENE 24 km/h
Température: 12°C
Point de rosée: 4°C
Humidité: 58%
Baromètre: 1028 hPa
Résumé: clair
Visibilité: greater than 10 km
2021/04/23 10:30 LFAQ 231030Z AUTO 06013KT CAVOK 12/04 Q1028 NOSIG
LFSR - Reims/Champagne, France
Distance de la station: S 120km
Mise à jour: 16/04/2012 09:00
NOT Current
partiellement nuageux
partiellement nuageux
 Wind from N
Vent: N 17 km/h
Température: 4°C
Température ressentie: 0°C
Point de rosée: 0°C
Humidité: 75%
Baromètre: 1022 hPa
Ciel: partiellement nuageux
Visibilité: 10 km
2012/04/16 07:00 LFSR 160700Z AUTO 01009KT 340V070 9999 NSC 04/00 Q1022
 
EHWO - Woensdrecht, Netherlands
Distance de la station: N 122km
Mise à jour: 23/04/2021 12:25

 Wind from varies
Vent: varies 13 km/h
Température: 12°C
Point de rosée: 1°C
Humidité: 47%
Baromètre: 1030 hPa
Visibilité: 10 km
2021/04/23 10:25 EHWO 231025Z AUTO VRB07KT 9999 ////// 12/01 Q1030 BLU
EHBK - Zuid-Limburg, Netherlands
Distance de la station: ENE 123km
Mise à jour: 23/04/2021 12:25
clair
clair
 Wind from NE
Vent: NE 11 km/h
Température: 10°C
Température ressentie: 8°C
Point de rosée: 3°C
Humidité: 62%
Baromètre: 1029 hPa
Ciel: clair
Visibilité: 10 km
2021/04/23 10:25 EHBK 231025Z AUTO 05006KT 340V140 9999 NCD 10/03 Q1029 NOSIG
EBBL - Kleine-Brogel, Belgium
Distance de la station: NE 124km
Mise à jour: 23/04/2021 12:25
quelques nuages
quelques nuages
 Wind from NE
Vent: NE 11 km/h
Température: 10°C
Température ressentie: 8°C
Point de rosée: 0°C
Humidité: 50%
Baromètre: 1029 hPa
Ciel: quelques nuages
Visibilité: 10 km
Détails du ciel: quelques nuages 7620 m
2021/04/23 10:25 EBBL 231025Z 05006KT 9999 FEW250 10/00 Q1029 BLU BLU
 
EBLB - Elsenborn, Belgium
Distance de la station: E 135km
Mise à jour: 23/04/2021 12:25
clair
clair
 Wind from ENE
Vent: ENE 13 km/h
Température: 9°C
Température ressentie: 7°C
Point de rosée: -1°C
Humidité: 50%
Baromètre: 1027 hPa
Ciel: clair
Visibilité: 10 km
2021/04/23 10:25 EBLB 231025Z AUTO 06007KT 9999 NCD 09/M01 Q1027 BLU
EBOS - Oostende Airport, Belgium
Distance de la station: NO 136km
Mise à jour: 23/04/2021 12:20
clair
clair
 Wind from ENE
Vent: ENE 15 km/h
Température: 11°C
Point de rosée: 2°C
Humidité: 54%
Baromètre: 1030 hPa
Résumé: clair
Visibilité: greater than 10 km
2021/04/23 10:20 EBOS 231020Z 07008KT 030V110 CAVOK 11/02 Q1030 NOSIG
EBFN - Koksijde, Belgium
Distance de la station: NO 140km
Mise à jour: 23/04/2021 12:25
clair
clair
 Wind from E
Vent: E 20 km/h
Température: 12°C
Point de rosée: 2°C
Humidité: 51%
Baromètre: 1030 hPa
Ciel: clair
Visibilité: 10 km
2021/04/23 10:25 EBFN 231025Z 08011KT 9999 SKC 12/02 Q1030 BLU BLU
 
ETNG - Geilenkirchen, Germany
Distance de la station: ENE 142km
Mise à jour: 23/04/2021 11:50
clair
clair
 Wind from ENE
Vent: ENE 13 km/h
Température: 9°C
Température ressentie: 7°C
Point de rosée: 2°C
Humidité: 62%
Baromètre: 1029 hPa
Résumé: clair
Visibilité: greater than 10 km
2021/04/23 09:50 ETNG 230950Z 07007KT CAVOK 09/02 Q1029 NOSIG
EHGR - Gilze-Rijen, Netherlands
Distance de la station: NNE 143km
Mise à jour: 23/04/2021 12:25
clair
clair
 Wind from varies
Vent: varies 11 km/h
Température: 11°C
Point de rosée: 2°C
Humidité: 54%
Baromètre: 1030 hPa
Ciel: clair
Visibilité: 10 km
2021/04/23 10:25 EHGR 231025Z AUTO VRB06KT 9999 NCD 11/02 Q1030 BLU NOSIG
EHEH - Eindhoven, Netherlands
Distance de la station: NNE 147km
Mise à jour: 23/04/2021 12:25
clair
clair
 Wind from NNE
Vent: NNE 9 km/h
Température: 11°C
Point de rosée: 1°C
Humidité: 50%
Baromètre: 1030 hPa
Ciel: clair
Visibilité: 10 km
2021/04/23 10:25 EHEH 231025Z AUTO 02005KT 340V130 9999 NCD 11/01 Q1030 BLU NOSIG
 
ELLX - Luxembourg, Luxembourg
Distance de la station: ESE 162km
Mise à jour: 23/04/2021 12:20
clair
clair
 Wind from ENE
Vent: ENE 13 km/h
Température: 10°C
Température ressentie: 8°C
Point de rosée: 0°C
Humidité: 50%
Baromètre: 1027 hPa
Résumé: clair
Visibilité: greater than 10 km
2021/04/23 10:20 ELLX 231020Z 07007KT 020V140 CAVOK 10/M00 Q1027 NOSIG
EHVK - Volkel, Netherlands
Distance de la station: NE 174km
Mise à jour: 23/04/2021 12:25
clair
clair
 Wind from varies
Vent: varies 7 km/h
Température: 10°C
Température ressentie: 9°C
Point de rosée: 2°C
Humidité: 58%
Baromètre: 1030 hPa
Ciel: clair
Visibilité: 10 km
2021/04/23 10:25 EHVK 231025Z AUTO VRB04KT 9999 NCD 10/02 Q1030 BLU
LFOK - Chalons/Vatry, France
Distance de la station: S 174km
Mise à jour: 23/04/2021 12:30
clair
clair
 Wind from ENE
Vent: ENE 22 km/h
Température: 14°C
Point de rosée: 2°C
Humidité: 44%
Baromètre: 1026 hPa
Résumé: clair
Visibilité: greater than 10 km
2021/04/23 10:30 LFOK 231030Z AUTO 06012KT CAVOK 14/02 Q1026 NOSIG
Script from Saratoga-Weather.org